sensor_id;sensor_type;location;lat;lon;timestamp;pressure;altitude;pressure_sealevel;temperature;humidity
58785;BME280;44557;51.862;19.378;2022-07-23T00:00:48;99227.37;;;24.35;55.01
58785;BME280;44557;51.862;19.378;2022-07-23T00:01:50;99225.32;;;24.37;54.69
58785;BME280;44557;51.862;19.378;2022-07-23T00:02:51;99222.73;;;24.31;54.89
58785;BME280;44557;51.862;19.378;2022-07-23T00:03:54;99224.00;;;24.32;55.14
58785;BME280;44557;51.862;19.378;2022-07-23T00:04:56;99224.16;;;24.28;55.09
58785;BME280;44557;51.862;19.378;2022-07-23T00:05:57;99229.11;;;24.33;54.86
58785;BME280;44557;51.862;19.378;2022-07-23T00:06:59;99225.61;;;24.34;54.83
58785;BME280;44557;51.862;19.378;2022-07-23T00:08:00;99225.05;;;24.37;54.68
58785;BME280;44557;51.862;19.378;2022-07-23T00:09:02;99228.16;;;24.35;54.84
58785;BME280;44557;51.862;19.378;2022-07-23T00:10:04;99228.30;;;24.30;54.82
58785;BME280;44557;51.862;19.378;2022-07-23T00:11:06;99229.07;;;24.25;55.06
58785;BME280;44557;51.862;19.378;2022-07-23T00:12:07;99235.08;;;24.26;55.14
58785;BME280;44557;51.862;19.378;2022-07-23T00:13:09;99230.90;;;24.23;55.17
58785;BME280;44557;51.862;19.378;2022-07-23T00:14:10;99227.71;;;24.28;55.05
58785;BME280;44557;51.862;19.378;2022-07-23T00:15:12;99232.61;;;24.22;55.05
58785;BME280;44557;51.862;19.378;2022-07-23T00:16:14;99235.62;;;24.21;55.17
58785;BME280;44557;51.862;19.378;2022-07-23T00:17:15;99236.14;;;24.20;55.38
58785;BME280;44557;51.862;19.378;2022-07-23T00:18:17;99237.82;;;24.16;55.34
58785;BME280;44557;51.862;19.378;2022-07-23T00:19:19;99238.29;;;24.17;55.09
58785;BME280;44557;51.862;19.378;2022-07-23T00:20:20;99238.63;;;24.13;55.34
58785;BME280;44557;51.862;19.378;2022-07-23T00:21:22;99239.35;;;24.19;55.08
58785;BME280;44557;51.862;19.378;2022-07-23T00:22:23;99240.59;;;24.11;55.44
58785;BME280;44557;51.862;19.378;2022-07-23T00:23:25;99241.70;;;24.12;55.43
58785;BME280;44557;51.862;19.378;2022-07-23T00:24:27;99246.30;;;24.12;55.51
58785;BME280;44557;51.862;19.378;2022-07-23T00:25:29;99245.74;;;24.15;55.63
58785;BME280;44557;51.862;19.378;2022-07-23T00:26:30;99247.20;;;24.08;55.43
58785;BME280;44557;51.862;19.378;2022-07-23T00:27:32;99246.18;;;24.13;55.35
58785;BME280;44557;51.862;19.378;2022-07-23T00:28:34;99246.33;;;24.11;55.45
58785;BME280;44557;51.862;19.378;2022-07-23T00:29:35;99247.55;;;24.03;55.62
58785;BME280;44557;51.862;19.378;2022-07-23T00:30:37;99248.89;;;24.08;55.46
58785;BME280;44557;51.862;19.378;2022-07-23T00:31:38;99248.92;;;24.10;55.69
58785;BME280;44557;51.862;19.378;2022-07-23T00:32:54;99247.40;;;24.07;55.55
58785;BME280;44557;51.862;19.378;2022-07-23T00:33:58;99245.60;;;24.14;55.14
58785;BME280;44557;51.862;19.378;2022-07-23T00:35:02;99249.30;;;24.08;55.39
58785;BME280;44557;51.862;19.378;2022-07-23T00:36:04;99248.19;;;24.04;55.50
58785;BME280;44557;51.862;19.378;2022-07-23T00:37:05;99254.63;;;24.06;55.51
58785;BME280;44557;51.862;19.378;2022-07-23T00:38:08;99250.16;;;23.98;55.87
58785;BME280;44557;51.862;19.378;2022-07-23T00:39:11;99255.64;;;23.91;56.08
58785;BME280;44557;51.862;19.378;2022-07-23T00:40:13;99254.39;;;23.89;56.12
58785;BME280;44557;51.862;19.378;2022-07-23T00:41:15;99254.30;;;23.96;55.89
58785;BME280;44557;51.862;19.378;2022-07-23T00:42:17;99253.46;;;23.90;56.08
58785;BME280;44557;51.862;19.378;2022-07-23T00:43:20;99253.71;;;23.97;55.90
58785;BME280;44557;51.862;19.378;2022-07-23T00:44:25;99255.01;;;23.97;55.86
58785;BME280;44557;51.862;19.378;2022-07-23T00:45:27;99252.40;;;23.88;56.08
58785;BME280;44557;51.862;19.378;2022-07-23T00:46:29;99250.52;;;23.90;55.79
58785;BME280;44557;51.862;19.378;2022-07-23T00:47:30;99247.45;;;23.90;56.14
58785;BME280;44557;51.862;19.378;2022-07-23T00:48:32;99245.13;;;23.86;56.03
58785;BME280;44557;51.862;19.378;2022-07-23T00:49:33;99243.50;;;23.74;56.35
58785;BME280;44557;51.862;19.378;2022-07-23T00:50:35;99242.81;;;23.86;56.19
58785;BME280;44557;51.862;19.378;2022-07-23T00:51:37;99242.89;;;23.96;55.83
58785;BME280;44557;51.862;19.378;2022-07-23T00:52:39;99239.34;;;23.83;55.89
58785;BME280;44557;51.862;19.378;2022-07-23T00:53:42;99241.67;;;23.80;56.10
58785;BME280;44557;51.862;19.378;2022-07-23T00:54:44;99244.20;;;23.88;55.90
58785;BME280;44557;51.862;19.378;2022-07-23T00:55:47;99244.30;;;23.77;55.99
58785;BME280;44557;51.862;19.378;2022-07-23T00:56:49;99248.20;;;23.79;55.94
58785;BME280;44557;51.862;19.378;2022-07-23T00:57:52;99245.23;;;23.72;56.27
58785;BME280;44557;51.862;19.378;2022-07-23T00:58:54;99249.96;;;23.76;56.19
58785;BME280;44557;51.862;19.378;2022-07-23T00:59:56;99247.12;;;23.80;55.96
58785;BME280;44557;51.862;19.378;2022-07-23T01:00:59;99253.06;;;23.77;56.42
58785;BME280;44557;51.862;19.378;2022-07-23T01:02:01;99248.15;;;23.70;56.27
58785;BME280;44557;51.862;19.378;2022-07-23T01:03:02;99247.84;;;23.64;56.55
58785;BME280;44557;51.862;19.378;2022-07-23T01:04:04;99250.44;;;23.73;56.56
58785;BME280;44557;51.862;19.378;2022-07-23T01:05:07;99242.86;;;23.70;56.26
58785;BME280;44557;51.862;19.378;2022-07-23T01:06:09;99244.00;;;23.66;56.37
58785;BME280;44557;51.862;19.378;2022-07-23T01:07:11;99242.27;;;23.54;56.69
58785;BME280;44557;51.862;19.378;2022-07-23T01:08:13;99238.82;;;23.68;56.30
58785;BME280;44557;51.862;19.378;2022-07-23T01:09:16;99241.58;;;23.73;56.08
58785;BME280;44557;51.862;19.378;2022-07-23T01:10:18;99241.52;;;23.69;56.49
58785;BME280;44557;51.862;19.378;2022-07-23T01:11:36;99243.39;;;23.71;56.49
58785;BME280;44557;51.862;19.378;2022-07-23T01:12:38;99242.24;;;23.76;56.27
58785;BME280;44557;51.862;19.378;2022-07-23T01:13:42;99242.86;;;23.70;56.45
58785;BME280;44557;51.862;19.378;2022-07-23T01:14:44;99248.61;;;23.68;56.54
58785;BME280;44557;51.862;19.378;2022-07-23T01:15:46;99245.37;;;23.70;56.37
58785;BME280;44557;51.862;19.378;2022-07-23T01:16:48;99249.52;;;23.57;56.82
58785;BME280;44557;51.862;19.378;2022-07-23T01:17:50;99249.48;;;23.51;57.07
58785;BME280;44557;51.862;19.378;2022-07-23T01:18:52;99249.73;;;23.48;57.04
58785;BME280;44557;51.862;19.378;2022-07-23T01:19:53;99253.45;;;23.46;56.96
58785;BME280;44557;51.862;19.378;2022-07-23T01:20:55;99250.41;;;23.46;57.18
58785;BME280;44557;51.862;19.378;2022-07-23T01:21:58;99250.95;;;23.43;57.10
58785;BME280;44557;51.862;19.378;2022-07-23T01:23:02;99249.73;;;23.44;57.01
58785;BME280;44557;51.862;19.378;2022-07-23T01:24:05;99249.23;;;23.38;57.24
58785;BME280;44557;51.862;19.378;2022-07-23T01:25:07;99251.29;;;23.39;57.21
58785;BME280;44557;51.862;19.378;2022-07-23T01:26:09;99252.59;;;23.35;57.46
58785;BME280;44557;51.862;19.378;2022-07-23T01:27:11;99258.77;;;23.31;57.45
58785;BME280;44557;51.862;19.378;2022-07-23T01:28:14;99253.65;;;23.25;57.93
58785;BME280;44557;51.862;19.378;2022-07-23T01:29:16;99255.69;;;23.23;57.73
58785;BME280;44557;51.862;19.378;2022-07-23T01:30:18;99252.98;;;23.26;57.42
58785;BME280;44557;51.862;19.378;2022-07-23T01:31:20;99254.43;;;23.19;57.70
58785;BME280;44557;51.862;19.378;2022-07-23T01:32:22;99256.93;;;23.18;57.78
58785;BME280;44557;51.862;19.378;2022-07-23T01:33:23;99254.46;;;23.25;57.52
58785;BME280;44557;51.862;19.378;2022-07-23T01:34:25;99253.86;;;23.19;57.70
58785;BME280;44557;51.862;19.378;2022-07-23T01:35:27;99259.86;;;23.13;57.79
58785;BME280;44557;51.862;19.378;2022-07-23T01:36:29;99258.02;;;23.12;57.91
58785;BME280;44557;51.862;19.378;2022-07-23T01:37:30;99257.65;;;23.19;57.80
58785;BME280;44557;51.862;19.378;2022-07-23T01:38:32;99258.55;;;23.14;57.91
58785;BME280;44557;51.862;19.378;2022-07-23T01:39:33;99258.67;;;23.12;57.96
58785;BME280;44557;51.862;19.378;2022-07-23T01:40:35;99257.70;;;23.16;57.76
58785;BME280;44557;51.862;19.378;2022-07-23T01:41:36;99257.72;;;23.03;58.06
58785;BME280;44557;51.862;19.378;2022-07-23T01:42:38;99256.31;;;23.01;58.29
58785;BME280;44557;51.862;19.378;2022-07-23T01:43:39;99255.33;;;23.11;57.99
58785;BME280;44557;51.862;19.378;2022-07-23T01:44:41;99249.59;;;23.05;58.09
58785;BME280;44557;51.862;19.378;2022-07-23T01:45:42;99249.75;;;23.19;57.80
58785;BME280;44557;51.862;19.378;2022-07-23T01:46:45;99250.31;;;23.23;57.41
58785;BME280;44557;51.862;19.378;2022-07-23T01:47:47;99244.27;;;23.20;57.57
58785;BME280;44557;51.862;19.378;2022-07-23T01:48:49;99245.77;;;23.21;57.59
58785;BME280;44557;51.862;19.378;2022-07-23T01:49:51;99246.36;;;23.24;57.53
58785;BME280;44557;51.862;19.378;2022-07-23T01:50:53;99241.25;;;23.23;57.42
58785;BME280;44557;51.862;19.378;2022-07-23T01:51:54;99237.92;;;23.20;57.54
58785;BME280;44557;51.862;19.378;2022-07-23T01:53:02;99240.41;;;23.17;57.89
58785;BME280;44557;51.862;19.378;2022-07-23T01:54:03;99238.02;;;23.13;57.90
58785;BME280;44557;51.862;19.378;2022-07-23T01:55:07;99238.77;;;23.15;57.88
58785;BME280;44557;51.862;19.378;2022-07-23T01:56:09;99237.91;;;23.21;57.88
58785;BME280;44557;51.862;19.378;2022-07-23T01:57:11;99234.32;;;23.13;58.05
58785;BME280;44557;51.862;19.378;2022-07-23T01:58:12;99235.16;;;23.18;57.98
58785;BME280;44557;51.862;19.378;2022-07-23T01:59:14;99232.77;;;23.14;57.79
58785;BME280;44557;51.862;19.378;2022-07-23T02:00:15;99233.02;;;23.13;58.09
58785;BME280;44557;51.862;19.378;2022-07-23T02:01:17;99230.34;;;23.15;57.77
58785;BME280;44557;51.862;19.378;2022-07-23T02:02:19;99230.27;;;23.18;57.71
58785;BME280;44557;51.862;19.378;2022-07-23T02:03:21;99229.57;;;23.17;57.76
58785;BME280;44557;51.862;19.378;2022-07-23T02:04:24;99229.48;;;23.10;57.92
58785;BME280;44557;51.862;19.378;2022-07-23T02:05:26;99231.88;;;23.11;57.93
58785;BME280;44557;51.862;19.378;2022-07-23T02:06:29;99232.76;;;22.99;58.45
58785;BME280;44557;51.862;19.378;2022-07-23T02:07:31;99233.23;;;23.00;58.15
58785;BME280;44557;51.862;19.378;2022-07-23T02:08:33;99236.23;;;22.86;58.69
58785;BME280;44557;51.862;19.378;2022-07-23T02:09:34;99235.14;;;22.85;59.07
58785;BME280;44557;51.862;19.378;2022-07-23T02:10:36;99236.48;;;22.85;58.76
58785;BME280;44557;51.862;19.378;2022-07-23T02:11:38;99236.20;;;22.84;58.79
58785;BME280;44557;51.862;19.378;2022-07-23T02:12:39;99235.86;;;22.72;59.12
58785;BME280;44557;51.862;19.378;2022-07-23T02:13:41;99236.88;;;22.82;59.04
58785;BME280;44557;51.862;19.378;2022-07-23T02:14:42;99240.58;;;22.81;58.89
58785;BME280;44557;51.862;19.378;2022-07-23T02:15:45;99238.21;;;22.71;59.18
58785;BME280;44557;51.862;19.378;2022-07-23T02:16:47;99243.38;;;22.73;59.30
58785;BME280;44557;51.862;19.378;2022-07-23T02:17:48;99239.74;;;22.75;59.26
58785;BME280;44557;51.862;19.378;2022-07-23T02:18:50;99237.73;;;22.83;59.06
58785;BME280;44557;51.862;19.378;2022-07-23T02:19:51;99230.83;;;22.71;59.31
58785;BME280;44557;51.862;19.378;2022-07-23T02:20:53;99232.38;;;22.70;59.47
58785;BME280;44557;51.862;19.378;2022-07-23T02:21:54;99228.65;;;22.72;59.50
58785;BME280;44557;51.862;19.378;2022-07-23T02:22:56;99233.35;;;22.69;59.46
58785;BME280;44557;51.862;19.378;2022-07-23T02:23:57;99236.07;;;22.56;60.08
58785;BME280;44557;51.862;19.378;2022-07-23T02:24:59;99235.14;;;22.64;59.71
58785;BME280;44557;51.862;19.378;2022-07-23T02:26:00;99236.13;;;22.76;59.44
58785;BME280;44557;51.862;19.378;2022-07-23T02:27:02;99230.35;;;22.75;59.52
58785;BME280;44557;51.862;19.378;2022-07-23T02:28:03;99231.83;;;22.66;59.70
58785;BME280;44557;51.862;19.378;2022-07-23T02:29:05;99229.05;;;22.50;60.31
58785;BME280;44557;51.862;19.378;2022-07-23T02:30:08;99228.02;;;22.44;60.51
58785;BME280;44557;51.862;19.378;2022-07-23T02:31:09;99230.36;;;22.48;60.35
58785;BME280;44557;51.862;19.378;2022-07-23T02:32:11;99229.17;;;22.43;60.45
58785;BME280;44557;51.862;19.378;2022-07-23T02:33:12;99231.64;;;22.48;60.61
58785;BME280;44557;51.862;19.378;2022-07-23T02:34:14;99235.27;;;22.62;60.07
58785;BME280;44557;51.862;19.378;2022-07-23T02:35:15;99235.76;;;22.65;60.07
58785;BME280;44557;51.862;19.378;2022-07-23T02:36:17;99229.61;;;22.59;60.04
58785;BME280;44557;51.862;19.378;2022-07-23T02:37:18;99224.34;;;22.27;61.12
58785;BME280;44557;51.862;19.378;2022-07-23T02:38:20;99230.50;;;22.19;61.38
58785;BME280;44557;51.862;19.378;2022-07-23T02:39:22;99226.05;;;22.30;61.06
58785;BME280;44557;51.862;19.378;2022-07-23T02:40:23;99226.50;;;22.35;60.86
58785;BME280;44557;51.862;19.378;2022-07-23T02:41:25;99231.31;;;22.31;61.05
58785;BME280;44557;51.862;19.378;2022-07-23T02:42:26;99227.50;;;22.25;61.46
58785;BME280;44557;51.862;19.378;2022-07-23T02:43:27;99225.48;;;22.31;61.45
58785;BME280;44557;51.862;19.378;2022-07-23T02:44:29;99225.60;;;22.24;61.36
58785;BME280;44557;51.862;19.378;2022-07-23T02:45:31;99229.77;;;22.14;61.52
58785;BME280;44557;51.862;19.378;2022-07-23T02:46:32;99223.05;;;22.09;61.83
58785;BME280;44557;51.862;19.378;2022-07-23T02:47:34;99224.34;;;22.07;61.99
58785;BME280;44557;51.862;19.378;2022-07-23T02:48:35;99227.46;;;21.99;62.24
58785;BME280;44557;51.862;19.378;2022-07-23T02:49:37;99229.64;;;22.12;61.95
58785;BME280;44557;51.862;19.378;2022-07-23T02:50:38;99235.23;;;22.04;62.22
58785;BME280;44557;51.862;19.378;2022-07-23T02:51:40;99234.04;;;21.94;62.56
58785;BME280;44557;51.862;19.378;2022-07-23T02:52:41;99232.41;;;22.04;62.42
58785;BME280;44557;51.862;19.378;2022-07-23T02:53:43;99236.61;;;22.18;62.22
58785;BME280;44557;51.862;19.378;2022-07-23T02:54:44;99232.02;;;22.27;61.88
58785;BME280;44557;51.862;19.378;2022-07-23T02:55:46;99231.14;;;22.32;61.61
58785;BME280;44557;51.862;19.378;2022-07-23T02:56:47;99233.20;;;22.24;61.43
58785;BME280;44557;51.862;19.378;2022-07-23T02:57:49;99228.28;;;22.26;61.16
58785;BME280;44557;51.862;19.378;2022-07-23T02:58:50;99229.16;;;22.17;61.69
58785;BME280;44557;51.862;19.378;2022-07-23T02:59:52;99229.85;;;21.95;62.36
58785;BME280;44557;51.862;19.378;2022-07-23T03:00:53;99228.14;;;22.06;62.31
58785;BME280;44557;51.862;19.378;2022-07-23T03:01:55;99227.65;;;22.11;62.23
58785;BME280;44557;51.862;19.378;2022-07-23T03:02:56;99228.83;;;22.18;61.99
58785;BME280;44557;51.862;19.378;2022-07-23T03:03:58;99230.06;;;22.21;61.71
58785;BME280;44557;51.862;19.378;2022-07-23T03:04:59;99228.38;;;22.06;62.10
58785;BME280;44557;51.862;19.378;2022-07-23T03:06:01;99228.02;;;22.00;62.50
58785;BME280;44557;51.862;19.378;2022-07-23T03:07:02;99224.79;;;22.05;62.27
58785;BME280;44557;51.862;19.378;2022-07-23T03:08:04;99228.91;;;21.90;62.69
58785;BME280;44557;51.862;19.378;2022-07-23T03:09:06;99228.52;;;21.92;62.81
58785;BME280;44557;51.862;19.378;2022-07-23T03:10:08;99224.79;;;22.05;62.43
58785;BME280;44557;51.862;19.378;2022-07-23T03:11:09;99226.33;;;22.14;62.07
58785;BME280;44557;51.862;19.378;2022-07-23T03:12:14;99223.73;;;22.17;61.92
58785;BME280;44557;51.862;19.378;2022-07-23T03:13:16;99221.34;;;22.19;61.63
58785;BME280;44557;51.862;19.378;2022-07-23T03:14:17;99221.94;;;22.08;62.04
58785;BME280;44557;51.862;19.378;2022-07-23T03:15:19;99223.44;;;22.05;62.25
58785;BME280;44557;51.862;19.378;2022-07-23T03:16:21;99222.55;;;22.00;62.33
58785;BME280;44557;51.862;19.378;2022-07-23T03:17:23;99225.55;;;21.83;62.79
58785;BME280;44557;51.862;19.378;2022-07-23T03:18:25;99227.05;;;21.84;62.79
58785;BME280;44557;51.862;19.378;2022-07-23T03:19:26;99226.13;;;22.06;62.06
58785;BME280;44557;51.862;19.378;2022-07-23T03:20:28;99226.11;;;22.18;61.76
58785;BME280;44557;51.862;19.378;2022-07-23T03:21:29;99225.42;;;22.20;61.42
58785;BME280;44557;51.862;19.378;2022-07-23T03:22:31;99221.64;;;21.98;61.99
58785;BME280;44557;51.862;19.378;2022-07-23T03:23:33;99223.88;;;21.77;62.90
58785;BME280;44557;51.862;19.378;2022-07-23T03:24:35;99222.70;;;21.80;62.81
58785;BME280;44557;51.862;19.378;2022-07-23T03:25:55;99226.42;;;21.77;62.92
58785;BME280;44557;51.862;19.378;2022-07-23T03:26:57;99225.29;;;21.86;62.78
58785;BME280;44557;51.862;19.378;2022-07-23T03:27:58;99228.52;;;21.93;62.63
58785;BME280;44557;51.862;19.378;2022-07-23T03:29:00;99223.85;;;22.04;62.19
58785;BME280;44557;51.862;19.378;2022-07-23T03:30:03;99224.79;;;22.14;61.80
58785;BME280;44557;51.862;19.378;2022-07-23T03:31:05;99224.52;;;22.22;61.66
58785;BME280;44557;51.862;19.378;2022-07-23T03:32:07;99223.34;;;22.24;61.52
58785;BME280;44557;51.862;19.378;2022-07-23T03:33:09;99219.90;;;22.15;61.53
58785;BME280;44557;51.862;19.378;2022-07-23T03:34:10;99220.36;;;22.15;61.66
58785;BME280;44557;51.862;19.378;2022-07-23T03:35:12;99217.74;;;22.19;61.70
58785;BME280;44557;51.862;19.378;2022-07-23T03:36:13;99218.56;;;22.13;61.91
58785;BME280;44557;51.862;19.378;2022-07-23T03:37:15;99217.52;;;22.14;61.80
58785;BME280;44557;51.862;19.378;2022-07-23T03:38:17;99219.66;;;22.19;61.63
58785;BME280;44557;51.862;19.378;2022-07-23T03:39:18;99220.35;;;22.16;61.85
58785;BME280;44557;51.862;19.378;2022-07-23T03:40:20;99219.05;;;22.03;62.17
58785;BME280;44557;51.862;19.378;2022-07-23T03:41:22;99220.54;;;21.96;62.38
58785;BME280;44557;51.862;19.378;2022-07-23T03:42:23;99223.92;;;22.05;62.20
58785;BME280;44557;51.862;19.378;2022-07-23T03:43:24;99226.94;;;22.11;62.08
58785;BME280;44557;51.862;19.378;2022-07-23T03:44:27;99229.04;;;22.19;61.81
58785;BME280;44557;51.862;19.378;2022-07-23T03:45:29;99228.78;;;22.30;61.37
58785;BME280;44557;51.862;19.378;2022-07-23T03:46:31;99229.88;;;22.36;61.36
58785;BME280;44557;51.862;19.378;2022-07-23T03:47:33;99228.05;;;22.35;61.39
58785;BME280;44557;51.862;19.378;2022-07-23T03:48:34;99224.77;;;22.15;61.95
58785;BME280;44557;51.862;19.378;2022-07-23T03:49:36;99221.52;;;21.85;62.93
58785;BME280;44557;51.862;19.378;2022-07-23T03:50:38;99222.07;;;21.86;62.94
58785;BME280;44557;51.862;19.378;2022-07-23T03:51:39;99220.80;;;21.99;62.63
58785;BME280;44557;51.862;19.378;2022-07-23T03:52:41;99219.30;;;22.08;62.20
58785;BME280;44557;51.862;19.378;2022-07-23T03:53:42;99223.50;;;22.20;61.94
58785;BME280;44557;51.862;19.378;2022-07-23T03:54:44;99224.48;;;22.32;61.63
58785;BME280;44557;51.862;19.378;2022-07-23T03:55:45;99222.98;;;22.40;61.47
58785;BME280;44557;51.862;19.378;2022-07-23T03:56:47;99221.41;;;22.42;61.46
58785;BME280;44557;51.862;19.378;2022-07-23T03:57:48;99221.20;;;22.40;61.49
58785;BME280;44557;51.862;19.378;2022-07-23T03:58:50;99214.25;;;22.31;61.91
58785;BME280;44557;51.862;19.378;2022-07-23T03:59:51;99215.58;;;22.20;62.40
58785;BME280;44557;51.862;19.378;2022-07-23T04:00:53;99220.16;;;22.18;62.33
58785;BME280;44557;51.862;19.378;2022-07-23T04:01:54;99217.26;;;22.15;62.41
58785;BME280;44557;51.862;19.378;2022-07-23T04:02:56;99215.34;;;22.05;62.69
58785;BME280;44557;51.862;19.378;2022-07-23T04:03:58;99214.59;;;22.16;62.20
58785;BME280;44557;51.862;19.378;2022-07-23T04:04:59;99213.52;;;22.36;61.53
58785;BME280;44557;51.862;19.378;2022-07-23T04:06:02;99215.98;;;22.36;61.58
58785;BME280;44557;51.862;19.378;2022-07-23T04:07:03;99219.19;;;22.41;61.49
58785;BME280;44557;51.862;19.378;2022-07-23T04:08:05;99216.83;;;22.47;61.32
58785;BME280;44557;51.862;19.378;2022-07-23T04:09:06;99219.06;;;22.56;61.21
58785;BME280;44557;51.862;19.378;2022-07-23T04:10:08;99220.71;;;22.60;61.48
58785;BME280;44557;51.862;19.378;2022-07-23T04:11:10;99220.54;;;22.64;61.30
58785;BME280;44557;51.862;19.378;2022-07-23T04:12:12;99220.86;;;22.59;61.19
58785;BME280;44557;51.862;19.378;2022-07-23T04:13:13;99217.13;;;22.57;60.91
58785;BME280;44557;51.862;19.378;2022-07-23T04:14:15;99217.36;;;22.58;61.10
58785;BME280;44557;51.862;19.378;2022-07-23T04:15:16;99222.00;;;22.64;60.96
58785;BME280;44557;51.862;19.378;2022-07-23T04:16:18;99220.81;;;22.70;61.00
58785;BME280;44557;51.862;19.378;2022-07-23T04:17:19;99221.31;;;22.77;60.84
58785;BME280;44557;51.862;19.378;2022-07-23T04:18:21;99225.80;;;22.86;60.64
58785;BME280;44557;51.862;19.378;2022-07-23T04:19:25;99223.35;;;22.88;60.64
58785;BME280;44557;51.862;19.378;2022-07-23T04:20:27;99224.46;;;22.96;60.30
58785;BME280;44557;51.862;19.378;2022-07-23T04:21:28;99223.88;;;23.02;59.96
58785;BME280;44557;51.862;19.378;2022-07-23T04:22:30;99226.02;;;23.07;59.89
58785;BME280;44557;51.862;19.378;2022-07-23T04:23:31;99227.34;;;23.13;59.56
58785;BME280;44557;51.862;19.378;2022-07-23T04:24:33;99231.13;;;23.19;59.57
58785;BME280;44557;51.862;19.378;2022-07-23T04:25:35;99229.36;;;23.12;59.58
58785;BME280;44557;51.862;19.378;2022-07-23T04:26:37;99224.38;;;23.02;59.87
58785;BME280;44557;51.862;19.378;2022-07-23T04:27:39;99222.52;;;23.05;59.81
58785;BME280;44557;51.862;19.378;2022-07-23T04:28:40;99221.15;;;23.10;59.91
58785;BME280;44557;51.862;19.378;2022-07-23T04:29:42;99220.56;;;23.14;59.70
58785;BME280;44557;51.862;19.378;2022-07-23T04:30:44;99221.25;;;23.16;59.77
58785;BME280;44557;51.862;19.378;2022-07-23T04:31:46;99218.33;;;23.13;59.75
58785;BME280;44557;51.862;19.378;2022-07-23T04:32:47;99219.58;;;23.15;59.68
58785;BME280;44557;51.862;19.378;2022-07-23T04:33:49;99216.80;;;23.24;59.33
58785;BME280;44557;51.862;19.378;2022-07-23T04:34:50;99217.68;;;23.25;59.40
58785;BME280;44557;51.862;19.378;2022-07-23T04:35:52;99217.22;;;23.24;59.61
58785;BME280;44557;51.862;19.378;2022-07-23T04:36:54;99219.81;;;23.30;59.26
58785;BME280;44557;51.862;19.378;2022-07-23T04:37:57;99219.72;;;23.27;59.38
58785;BME280;44557;51.862;19.378;2022-07-23T04:38:58;99222.34;;;23.29;59.33
58785;BME280;44557;51.862;19.378;2022-07-23T04:40:00;99222.20;;;23.39;59.21
58785;BME280;44557;51.862;19.378;2022-07-23T04:41:02;99223.16;;;23.39;59.37
58785;BME280;44557;51.862;19.378;2022-07-23T04:42:03;99222.36;;;23.46;59.07
58785;BME280;44557;51.862;19.378;2022-07-23T04:43:05;99216.16;;;23.44;59.06
58785;BME280;44557;51.862;19.378;2022-07-23T04:44:06;99220.67;;;23.53;59.14
58785;BME280;44557;51.862;19.378;2022-07-23T04:45:08;99216.51;;;23.56;58.93
58785;BME280;44557;51.862;19.378;2022-07-23T04:46:10;99214.79;;;23.64;58.70
58785;BME280;44557;51.862;19.378;2022-07-23T04:47:12;99215.48;;;23.69;58.58
58785;BME280;44557;51.862;19.378;2022-07-23T04:48:13;99217.98;;;23.72;58.69
58785;BME280;44557;51.862;19.378;2022-07-23T04:49:15;99215.98;;;23.78;58.41
58785;BME280;44557;51.862;19.378;2022-07-23T04:50:16;99217.96;;;23.79;58.23
58785;BME280;44557;51.862;19.378;2022-07-23T04:51:20;99219.30;;;23.81;58.27
58785;BME280;44557;51.862;19.378;2022-07-23T04:52:23;99219.09;;;23.86;58.33
58785;BME280;44557;51.862;19.378;2022-07-23T04:53:24;99217.10;;;23.85;57.77
58785;BME280;44557;51.862;19.378;2022-07-23T04:54:26;99213.92;;;23.87;57.86
58785;BME280;44557;51.862;19.378;2022-07-23T04:55:27;99216.84;;;23.89;57.77
58785;BME280;44557;51.862;19.378;2022-07-23T04:56:29;99217.69;;;23.91;58.07
58785;BME280;44557;51.862;19.378;2022-07-23T04:57:31;99219.19;;;23.96;58.07
58785;BME280;44557;51.862;19.378;2022-07-23T04:58:32;99218.83;;;23.97;57.57
58785;BME280;44557;51.862;19.378;2022-07-23T04:59:34;99218.00;;;23.98;57.37
58785;BME280;44557;51.862;19.378;2022-07-23T05:00:35;99218.00;;;24.01;57.26
58785;BME280;44557;51.862;19.378;2022-07-23T05:01:37;99218.47;;;24.02;57.27
58785;BME280;44557;51.862;19.378;2022-07-23T05:02:38;99215.84;;;23.94;57.64
58785;BME280;44557;51.862;19.378;2022-07-23T05:03:40;99215.27;;;24.01;57.43
58785;BME280;44557;51.862;19.378;2022-07-23T05:04:41;99215.33;;;24.02;57.52
58785;BME280;44557;51.862;19.378;2022-07-23T05:05:43;99219.73;;;24.10;57.32
58785;BME280;44557;51.862;19.378;2022-07-23T05:06:44;99217.50;;;24.12;56.89
58785;BME280;44557;51.862;19.378;2022-07-23T05:07:46;99210.70;;;24.20;57.01
58785;BME280;44557;51.862;19.378;2022-07-23T05:08:47;99212.85;;;24.24;56.99
58785;BME280;44557;51.862;19.378;2022-07-23T05:09:49;99214.09;;;24.26;56.81
58785;BME280;44557;51.862;19.378;2022-07-23T05:10:50;99212.58;;;24.28;56.80
58785;BME280;44557;51.862;19.378;2022-07-23T05:11:52;99213.48;;;24.33;56.76
58785;BME280;44557;51.862;19.378;2022-07-23T05:12:54;99214.84;;;24.31;56.94
58785;BME280;44557;51.862;19.378;2022-07-23T05:13:55;99215.59;;;24.27;56.90
58785;BME280;44557;51.862;19.378;2022-07-23T05:14:57;99211.50;;;24.27;56.81
58785;BME280;44557;51.862;19.378;2022-07-23T05:15:58;99213.09;;;24.27;56.56
58785;BME280;44557;51.862;19.378;2022-07-23T05:17:00;99211.94;;;24.34;56.17
58785;BME280;44557;51.862;19.378;2022-07-23T05:18:01;99209.88;;;24.36;56.07
58785;BME280;44557;51.862;19.378;2022-07-23T05:19:03;99212.34;;;24.41;56.03
58785;BME280;44557;51.862;19.378;2022-07-23T05:20:05;99210.78;;;24.50;55.72
58785;BME280;44557;51.862;19.378;2022-07-23T05:21:06;99215.65;;;24.54;55.47
58785;BME280;44557;51.862;19.378;2022-07-23T05:22:08;99215.78;;;24.56;55.37
58785;BME280;44557;51.862;19.378;2022-07-23T05:23:09;99216.19;;;24.58;55.63
58785;BME280;44557;51.862;19.378;2022-07-23T05:24:11;99215.36;;;24.61;55.80